Kfhu

KFHU 310657Z 00000KT 10SM VCSH OVC120 21/16 A3002 RMK AO2A RAE23 SLP087 SH SW-NW. Country: United States Continent: North America

2022-12-10
    بايج و البرتو ديل ريو
  1. Valid from 01-Aug-2021 to 29-Aug-2021
  2. 54 °N, 110
  3. Army installation in Cochise County, Arizona, United States
  4. Surveyed Elevation is 4719 feet MSL
  5. 33333°WElev: 4718ft
  6. 03
  7. from 24 at 04 UTC to 24 at 05 UTC
  8. 4103/jfmpc